sensor_id;sensor_type;location;lat;lon;timestamp;pressure;altitude;pressure_sealevel;temperature;humidity
63321;BME280;49449;48.800;9.534;2023-01-28T00:00:49;99148.63;;;2.69;39.76
63321;BME280;49449;48.800;9.534;2023-01-28T00:03:16;99143.41;;;2.69;39.68
63321;BME280;49449;48.800;9.534;2023-01-28T00:05:44;99140.31;;;2.65;40.49
63321;BME280;49449;48.800;9.534;2023-01-28T00:08:12;99139.97;;;2.68;40.18
63321;BME280;49449;48.800;9.534;2023-01-28T00:10:40;99140.13;;;2.67;40.55
63321;BME280;49449;48.800;9.534;2023-01-28T00:13:11;99144.53;;;2.66;39.94
63321;BME280;49449;48.800;9.534;2023-01-28T00:15:40;99134.91;;;2.67;39.76
63321;BME280;49449;48.800;9.534;2023-01-28T00:18:08;99138.66;;;2.64;44.36
63321;BME280;49449;48.800;9.534;2023-01-28T00:20:36;99130.03;;;2.64;42.54
63321;BME280;49449;48.800;9.534;2023-01-28T00:23:03;99134.75;;;2.68;40.87
63321;BME280;49449;48.800;9.534;2023-01-28T00:25:31;99128.56;;;2.70;40.66
63321;BME280;49449;48.800;9.534;2023-01-28T00:27:59;99129.53;;;2.68;39.88
63321;BME280;49449;48.800;9.534;2023-01-28T00:30:28;99136.56;;;2.68;39.93
63321;BME280;49449;48.800;9.534;2023-01-28T00:32:56;99134.59;;;2.70;40.50
63321;BME280;49449;48.800;9.534;2023-01-28T00:35:24;99130.22;;;2.71;40.20
63321;BME280;49449;48.800;9.534;2023-01-28T00:37:52;99124.16;;;2.70;39.94
63321;BME280;49449;48.800;9.534;2023-01-28T00:40:19;99129.22;;;2.72;39.89
63321;BME280;49449;48.800;9.534;2023-01-28T00:42:47;99122.88;;;2.74;39.93
63321;BME280;49449;48.800;9.534;2023-01-28T00:45:15;99114.22;;;2.74;39.83
63321;BME280;49449;48.800;9.534;2023-01-28T00:47:44;99118.47;;;2.75;40.01
63321;BME280;49449;48.800;9.534;2023-01-28T00:50:13;99124.66;;;2.74;39.93
63321;BME280;49449;48.800;9.534;2023-01-28T00:52:41;99125.28;;;2.76;40.15
63321;BME280;49449;48.800;9.534;2023-01-28T00:55:10;99119.44;;;2.74;40.31
63321;BME280;49449;48.800;9.534;2023-01-28T00:57:38;99119.44;;;2.74;40.59
63321;BME280;49449;48.800;9.534;2023-01-28T01:00:07;99136.09;;;2.73;39.60
63321;BME280;49449;48.800;9.534;2023-01-28T01:02:34;99130.88;;;2.73;40.21
63321;BME280;49449;48.800;9.534;2023-01-28T01:05:04;99128.41;;;2.71;39.90
63321;BME280;49449;48.800;9.534;2023-01-28T01:07:32;99133.63;;;2.71;39.80
63321;BME280;49449;48.800;9.534;2023-01-28T01:10:08;99139.81;;;2.70;40.59
63321;BME280;49449;48.800;9.534;2023-01-28T01:12:37;99128.41;;;2.71;40.01
63321;BME280;49449;48.800;9.534;2023-01-28T01:15:06;99130.69;;;2.74;39.74
63321;BME280;49449;48.800;9.534;2023-01-28T01:17:35;99123.03;;;2.73;40.02
63321;BME280;49449;48.800;9.534;2023-01-28T01:20:08;99130.88;;;2.73;39.49
63321;BME280;49449;48.800;9.534;2023-01-28T01:22:38;99123.03;;;2.73;40.27
63321;BME280;49449;48.800;9.534;2023-01-28T01:25:07;99130.69;;;2.74;39.68
63321;BME280;49449;48.800;9.534;2023-01-28T01:27:35;99131.34;;;2.76;39.84
63321;BME280;49449;48.800;9.534;2023-01-28T01:30:04;99134.63;;;2.78;39.92
63321;BME280;49449;48.800;9.534;2023-01-28T01:32:33;99130.53;;;2.76;39.85
63321;BME280;49449;48.800;9.534;2023-01-28T01:35:02;99132.97;;;2.77;39.71
63321;BME280;49449;48.800;9.534;2023-01-28T01:37:35;99136.41;;;2.78;39.87
63321;BME280;49449;48.800;9.534;2023-01-28T01:40:04;99128.59;;;2.78;39.48
63321;BME280;49449;48.800;9.534;2023-01-28T01:42:32;99131.19;;;2.78;40.08
63321;BME280;49449;48.800;9.534;2023-01-28T01:45:01;99137.38;;;2.77;40.04
63321;BME280;49449;48.800;9.534;2023-01-28T01:47:33;99134.59;;;2.70;39.19
63321;BME280;49449;48.800;9.534;2023-01-28T01:50:06;99145.34;;;2.67;40.18
63321;BME280;49449;48.800;9.534;2023-01-28T01:52:39;99147.47;;;2.72;39.78
63321;BME280;49449;48.800;9.534;2023-01-28T01:55:11;99150.91;;;2.72;39.82
63321;BME280;49449;48.800;9.534;2023-01-28T01:57:41;99151.59;;;2.74;40.34
63321;BME280;49449;48.800;9.534;2023-01-28T02:00:10;99155.00;;;2.75;39.48
63321;BME280;49449;48.800;9.534;2023-01-28T02:02:40;99151.59;;;2.74;39.71
63321;BME280;49449;48.800;9.534;2023-01-28T02:05:12;99145.53;;;2.74;40.18
63321;BME280;49449;48.800;9.534;2023-01-28T02:07:44;99147.31;;;2.73;39.39
63321;BME280;49449;48.800;9.534;2023-01-28T02:10:13;99151.59;;;2.74;39.44
63321;BME280;49449;48.800;9.534;2023-01-28T02:12:43;99153.50;;;2.72;39.34
63321;BME280;49449;48.800;9.534;2023-01-28T02:15:13;99153.69;;;2.71;39.84
63321;BME280;49449;48.800;9.534;2023-01-28T02:17:43;99156.94;;;2.64;40.00
63321;BME280;49449;48.800;9.534;2023-01-28T02:20:12;99156.59;;;2.59;39.13
63321;BME280;49449;48.800;9.534;2023-01-28T02:26:14;99154.81;;;2.52;39.90
63321;BME280;49449;48.800;9.534;2023-01-28T02:28:51;99158.22;;;2.52;39.49
63321;BME280;49449;48.800;9.534;2023-01-28T02:31:24;99154.47;;;2.55;39.30
63321;BME280;49449;48.800;9.534;2023-01-28T02:33:59;99160.03;;;2.52;39.00
63321;BME280;49449;48.800;9.534;2023-01-28T02:36:32;99156.75;;;2.58;39.16
63321;BME280;49449;48.800;9.534;2023-01-28T02:39:08;99145.81;;;2.54;39.72
63321;BME280;49449;48.800;9.534;2023-01-28T02:41:43;99154.47;;;2.55;39.57
63321;BME280;49449;48.800;9.534;2023-01-28T02:44:14;99153.66;;;2.54;40.35
63321;BME280;49449;48.800;9.534;2023-01-28T02:46:42;99146.63;;;2.55;40.56
63321;BME280;49449;48.800;9.534;2023-01-28T02:49:29;99149.75;;;2.58;39.74
63321;BME280;49449;48.800;9.534;2023-01-28T02:52:09;99154.16;;;2.58;40.54
63321;BME280;49449;48.800;9.534;2023-01-28T02:54:45;99153.19;;;2.59;40.10
63321;BME280;49449;48.800;9.534;2023-01-28T02:57:24;99157.59;;;2.58;39.40
63321;BME280;49449;48.800;9.534;2023-01-28T03:00:03;99157.59;;;2.58;39.84
63321;BME280;49449;48.800;9.534;2023-01-28T03:02:36;99160.69;;;2.62;40.03
63321;BME280;49449;48.800;9.534;2023-01-28T03:05:13;99164.91;;;2.63;39.92
63321;BME280;49449;48.800;9.534;2023-01-28T03:07:45;99162.81;;;2.66;40.32
63321;BME280;49449;48.800;9.534;2023-01-28T03:10:17;99171.28;;;2.68;40.83
63321;BME280;49449;48.800;9.534;2023-01-28T03:12:48;99168.69;;;2.68;40.00
63321;BME280;49449;48.800;9.534;2023-01-28T03:15:38;99169.66;;;2.67;41.68
63321;BME280;49449;48.800;9.534;2023-01-28T03:18:29;99166.22;;;2.67;40.58
63321;BME280;49449;48.800;9.534;2023-01-28T03:21:19;99165.41;;;2.66;41.15
63321;BME280;49449;48.800;9.534;2023-01-28T03:24:10;99164.75;;;2.64;40.31
63321;BME280;49449;48.800;9.534;2023-01-28T03:27:01;99166.41;;;2.65;40.34
63321;BME280;49449;48.800;9.534;2023-01-28T03:29:51;99159.38;;;2.66;40.98
63321;BME280;49449;48.800;9.534;2023-01-28T03:32:41;99158.59;;;2.65;40.39
63321;BME280;49449;48.800;9.534;2023-01-28T03:35:28;99161.19;;;2.65;40.13
63321;BME280;49449;48.800;9.534;2023-01-28T03:38:15;99162.81;;;2.66;40.30
63321;BME280;49449;48.800;9.534;2023-01-28T03:40:54;99168.50;;;2.70;40.43
63321;BME280;49449;48.800;9.534;2023-01-28T03:43:22;99164.13;;;2.71;40.82
63321;BME280;49449;48.800;9.534;2023-01-28T03:45:50;99174.56;;;2.71;40.44
63321;BME280;49449;48.800;9.534;2023-01-28T03:48:21;99178.63;;;2.73;42.50
63321;BME280;49449;48.800;9.534;2023-01-28T03:50:50;99179.44;;;2.74;41.42
63321;BME280;49449;48.800;9.534;2023-01-28T03:53:20;99181.75;;;2.77;40.99
63321;BME280;49449;48.800;9.534;2023-01-28T03:55:49;99182.72;;;2.76;40.38
63321;BME280;49449;48.800;9.534;2023-01-28T03:58:18;99178.47;;;2.75;41.43
63321;BME280;49449;48.800;9.534;2023-01-28T04:00:46;99186.00;;;2.78;41.39
63321;BME280;49449;48.800;9.534;2023-01-28T04:03:16;99178.16;;;2.78;40.43
63321;BME280;49449;48.800;9.534;2023-01-28T04:05:57;99179.28;;;2.75;41.10
63321;BME280;49449;48.800;9.534;2023-01-28T04:08:25;99176.69;;;2.75;41.42
63321;BME280;49449;48.800;9.534;2023-01-28T04:10:53;99181.91;;;2.75;40.30
63321;BME280;49449;48.800;9.534;2023-01-28T04:13:20;99178.47;;;2.75;40.24
63321;BME280;49449;48.800;9.534;2023-01-28T04:15:48;99175.53;;;2.70;41.21
63321;BME280;49449;48.800;9.534;2023-01-28T04:18:16;99187.44;;;2.72;40.78
63321;BME280;49449;48.800;9.534;2023-01-28T04:20:47;99190.88;;;2.73;41.31
63321;BME280;49449;48.800;9.534;2023-01-28T04:23:15;99193.50;;;2.73;41.11
63321;BME280;49449;48.800;9.534;2023-01-28T04:25:43;99189.88;;;2.74;41.20
63321;BME280;49449;48.800;9.534;2023-01-28T04:28:10;99198.38;;;2.76;41.51
63321;BME280;49449;48.800;9.534;2023-01-28T04:30:38;99200.00;;;2.77;40.95
63321;BME280;49449;48.800;9.534;2023-01-28T04:33:06;99206.88;;;2.78;41.24
63321;BME280;49449;48.800;9.534;2023-01-28T04:35:33;99204.28;;;2.78;41.12
63321;BME280;49449;48.800;9.534;2023-01-28T04:38:03;99198.38;;;2.76;41.02
63321;BME280;49449;48.800;9.534;2023-01-28T04:40:30;99202.31;;;2.80;41.54
63321;BME280;49449;48.800;9.534;2023-01-28T04:42:58;99206.88;;;2.78;41.51
63321;BME280;49449;48.800;9.534;2023-01-28T04:45:26;99205.88;;;2.79;40.96
63321;BME280;49449;48.800;9.534;2023-01-28T04:47:53;99210.28;;;2.78;41.63
63321;BME280;49449;48.800;9.534;2023-01-28T04:50:21;99207.69;;;2.78;41.91
63321;BME280;49449;48.800;9.534;2023-01-28T04:52:49;99209.66;;;2.76;41.58
63321;BME280;49449;48.800;9.534;2023-01-28T04:55:18;99212.09;;;2.78;40.98
63321;BME280;49449;48.800;9.534;2023-01-28T04:57:46;99213.06;;;2.77;41.34
63321;BME280;49449;48.800;9.534;2023-01-28T05:00:15;99210.41;;;2.60;40.54
63321;BME280;49449;48.800;9.534;2023-01-28T05:02:43;99212.34;;;2.50;40.48
63321;BME280;49449;48.800;9.534;2023-01-28T05:05:10;99217.38;;;2.43;40.36
63321;BME280;49449;48.800;9.534;2023-01-28T05:07:39;99220.47;;;2.47;40.72
63321;BME280;49449;48.800;9.534;2023-01-28T05:10:07;99222.25;;;2.38;41.16
63321;BME280;49449;48.800;9.534;2023-01-28T05:12:36;99224.88;;;2.46;40.65
63321;BME280;49449;48.800;9.534;2023-01-28T05:15:06;99219.84;;;2.53;41.38
63321;BME280;49449;48.800;9.534;2023-01-28T05:17:34;99217.75;;;2.57;40.87
63321;BME280;49449;48.800;9.534;2023-01-28T05:20:02;99224.09;;;2.54;40.65
63321;BME280;49449;48.800;9.534;2023-01-28T05:22:30;99226.84;;;2.53;40.96
63321;BME280;49449;48.800;9.534;2023-01-28T05:24:58;99220.78;;;2.44;40.76
63321;BME280;49449;48.800;9.534;2023-01-28T05:27:26;99225.00;;;2.28;41.33
63321;BME280;49449;48.800;9.534;2023-01-28T05:29:55;99222.53;;;2.27;40.92
63321;BME280;49449;48.800;9.534;2023-01-28T05:32:23;99221.59;;;2.36;41.88
63321;BME280;49449;48.800;9.534;2023-01-28T05:34:51;99224.22;;;2.44;41.58
63321;BME280;49449;48.800;9.534;2023-01-28T05:37:18;99222.28;;;2.46;41.31
63321;BME280;49449;48.800;9.534;2023-01-28T05:39:46;99219.81;;;2.45;41.53
63321;BME280;49449;48.800;9.534;2023-01-28T05:42:14;99224.69;;;2.40;40.67
63321;BME280;49449;48.800;9.534;2023-01-28T05:44:42;99225.00;;;2.28;41.44
63321;BME280;49449;48.800;9.534;2023-01-28T05:47:11;99222.25;;;2.38;41.25
63321;BME280;49449;48.800;9.534;2023-01-28T05:49:39;99218.19;;;2.44;42.04
63321;BME280;49449;48.800;9.534;2023-01-28T05:52:07;99223.41;;;2.44;41.17
63321;BME280;49449;48.800;9.534;2023-01-28T05:54:34;99224.22;;;2.44;42.12
63321;BME280;49449;48.800;9.534;2023-01-28T05:57:02;99224.38;;;2.43;42.28
63321;BME280;49449;48.800;9.534;2023-01-28T05:59:30;99229.13;;;2.47;41.57
63321;BME280;49449;48.800;9.534;2023-01-28T06:01:58;99224.09;;;2.46;42.48
63321;BME280;49449;48.800;9.534;2023-01-28T06:04:27;99231.56;;;2.41;41.95
63321;BME280;49449;48.800;9.534;2023-01-28T06:06:55;99230.56;;;2.42;42.02
63321;BME280;49449;48.800;9.534;2023-01-28T06:09:22;99233.03;;;2.43;41.11
63321;BME280;49449;48.800;9.534;2023-01-28T06:11:50;99238.03;;;2.37;41.22
63321;BME280;49449;48.800;9.534;2023-01-28T06:14:18;99242.34;;;2.46;41.60
63321;BME280;49449;48.800;9.534;2023-01-28T06:16:45;99241.84;;;2.42;41.68
63321;BME280;49449;48.800;9.534;2023-01-28T06:19:13;99247.66;;;2.36;41.59
63321;BME280;49449;48.800;9.534;2023-01-28T06:21:42;99251.59;;;2.40;41.76
63321;BME280;49449;48.800;9.534;2023-01-28T06:24:10;99252.78;;;2.46;41.68
63321;BME280;49449;48.800;9.534;2023-01-28T06:26:39;99262.06;;;2.48;41.95
63321;BME280;49449;48.800;9.534;2023-01-28T06:29:07;99264.22;;;2.53;41.79
63321;BME280;49449;48.800;9.534;2023-01-28T06:31:35;99262.25;;;2.55;41.86
63321;BME280;49449;48.800;9.534;2023-01-28T06:34:02;99283.78;;;2.57;41.81
63321;BME280;49449;48.800;9.534;2023-01-28T06:36:30;99283.63;;;2.59;41.85
63321;BME280;49449;48.800;9.534;2023-01-28T06:38:59;99279.72;;;2.63;42.33
63321;BME280;49449;48.800;9.534;2023-01-28T06:41:27;99287.38;;;2.64;42.22
63321;BME280;49449;48.800;9.534;2023-01-28T06:43:55;99287.38;;;2.64;42.20
63321;BME280;49449;48.800;9.534;2023-01-28T06:46:23;99289.69;;;2.67;42.55
63321;BME280;49449;48.800;9.534;2023-01-28T06:48:50;99288.69;;;2.68;42.00
63321;BME280;49449;48.800;9.534;2023-01-28T06:51:18;99291.00;;;2.72;41.76
63321;BME280;49449;48.800;9.534;2023-01-28T06:53:46;99292.66;;;2.73;41.99
63321;BME280;49449;48.800;9.534;2023-01-28T06:56:15;99297.88;;;2.73;42.41
63321;BME280;49449;48.800;9.534;2023-01-28T06:58:42;99297.88;;;2.73;41.67
63321;BME280;49449;48.800;9.534;2023-01-28T07:01:10;99299.28;;;2.67;41.73
63321;BME280;49449;48.800;9.534;2023-01-28T07:03:38;99302.25;;;2.64;41.95
63321;BME280;49449;48.800;9.534;2023-01-28T07:06:06;99302.09;;;2.65;41.81
63321;BME280;49449;48.800;9.534;2023-01-28T07:08:34;99299.28;;;2.67;41.77
63321;BME280;49449;48.800;9.534;2023-01-28T07:11:03;99304.19;;;2.62;42.13
63321;BME280;49449;48.800;9.534;2023-01-28T07:13:32;99305.09;;;2.53;41.46
63321;BME280;49449;48.800;9.534;2023-01-28T07:16:00;99309.50;;;2.52;41.54
63321;BME280;49449;48.800;9.534;2023-01-28T07:18:29;99306.44;;;2.57;42.24
63321;BME280;49449;48.800;9.534;2023-01-28T07:20:57;99310.69;;;2.58;41.79
63321;BME280;49449;48.800;9.534;2023-01-28T07:23:24;99307.91;;;2.59;41.85
63321;BME280;49449;48.800;9.534;2023-01-28T07:25:54;99316.03;;;2.56;42.00
63321;BME280;49449;48.800;9.534;2023-01-28T07:28:22;99320.31;;;2.57;41.59
63321;BME280;49449;48.800;9.534;2023-01-28T07:30:51;99320.16;;;2.59;41.51
63321;BME280;49449;48.800;9.534;2023-01-28T07:33:19;99326.13;;;2.51;41.45
63321;BME280;49449;48.800;9.534;2023-01-28T07:35:47;99330.19;;;2.45;42.27
63321;BME280;49449;48.800;9.534;2023-01-28T07:38:15;99328.44;;;2.54;41.71
63321;BME280;49449;48.800;9.534;2023-01-28T07:40:43;99326.19;;;2.59;42.10
63321;BME280;49449;48.800;9.534;2023-01-28T07:43:11;99328.44;;;2.54;41.68
63321;BME280;49449;48.800;9.534;2023-01-28T07:45:39;99332.53;;;2.57;41.07
63321;BME280;49449;48.800;9.534;2023-01-28T07:48:11;99335.81;;;2.59;43.01
63321;BME280;49449;48.800;9.534;2023-01-28T07:50:39;99329.78;;;2.58;42.16
63321;BME280;49449;48.800;9.534;2023-01-28T07:53:08;99321.75;;;2.52;41.20
63321;BME280;49449;48.800;9.534;2023-01-28T07:55:37;99334.59;;;2.45;41.58
63321;BME280;49449;48.800;9.534;2023-01-28T07:58:07;99329.72;;;2.50;42.14
63321;BME280;49449;48.800;9.534;2023-01-28T08:00:36;99325.81;;;2.54;41.27
63321;BME280;49449;48.800;9.534;2023-01-28T08:03:05;99328.41;;;2.46;41.76
63321;BME280;49449;48.800;9.534;2023-01-28T08:05:39;99340.97;;;2.51;41.80
63321;BME280;49449;48.800;9.534;2023-01-28T08:08:08;99341.97;;;2.49;40.88
63321;BME280;49449;48.800;9.534;2023-01-28T08:10:37;99342.78;;;2.50;41.27
63321;BME280;49449;48.800;9.534;2023-01-28T08:13:06;99346.69;;;2.54;41.48
63321;BME280;49449;48.800;9.534;2023-01-28T08:15:33;99351.47;;;2.59;40.79
63321;BME280;49449;48.800;9.534;2023-01-28T08:18:03;99358.28;;;2.60;41.26
63321;BME280;49449;48.800;9.534;2023-01-28T08:20:31;99351.47;;;2.59;41.79
63321;BME280;49449;48.800;9.534;2023-01-28T08:23:08;99357.53;;;2.67;41.86
63321;BME280;49449;48.800;9.534;2023-01-28T08:25:38;99359.50;;;2.65;41.65
63321;BME280;49449;48.800;9.534;2023-01-28T08:28:09;99353.41;;;2.57;40.65
63321;BME280;49449;48.800;9.534;2023-01-28T08:30:38;99347.72;;;2.61;41.38
63321;BME280;49449;48.800;9.534;2023-01-28T08:33:09;99355.22;;;2.64;41.07
63321;BME280;49449;48.800;9.534;2023-01-28T08:35:38;99359.00;;;2.70;42.27
63321;BME280;49449;48.800;9.534;2023-01-28T08:38:07;99366.72;;;2.80;41.18
63321;BME280;49449;48.800;9.534;2023-01-28T08:40:35;99361.34;;;2.81;41.03
63321;BME280;49449;48.800;9.534;2023-01-28T08:43:03;99347.81;;;2.86;41.44
63321;BME280;49449;48.800;9.534;2023-01-28T08:45:31;99354.38;;;2.90;41.32
63321;BME280;49449;48.800;9.534;2023-01-28T08:48:01;99357.28;;;2.87;40.26
63321;BME280;49449;48.800;9.534;2023-01-28T08:50:31;99349.47;;;2.87;40.94
63321;BME280;49449;48.800;9.534;2023-01-28T08:53:02;99354.03;;;2.93;40.75
63321;BME280;49449;48.800;9.534;2023-01-28T08:55:32;99364.97;;;2.97;40.45
63321;BME280;49449;48.800;9.534;2023-01-28T08:58:01;99362.38;;;2.97;41.00
63321;BME280;49449;48.800;9.534;2023-01-28T09:00:29;99367.31;;;3.08;40.54
63321;BME280;49449;48.800;9.534;2023-01-28T09:02:57;99367.50;;;3.15;40.51
63321;BME280;49449;48.800;9.534;2023-01-28T09:05:25;99371.28;;;3.20;40.75
63321;BME280;49449;48.800;9.534;2023-01-28T09:07:53;99369.16;;;3.24;41.42
63321;BME280;49449;48.800;9.534;2023-01-28T09:10:20;99372.81;;;3.31;41.04
63321;BME280;49449;48.800;9.534;2023-01-28T09:12:49;99373.16;;;3.36;44.53
63321;BME280;49449;48.800;9.534;2023-01-28T09:15:17;99370.91;;;3.58;45.12
63321;BME280;49449;48.800;9.534;2023-01-28T09:17:45;99371.88;;;3.81;45.09
63321;BME280;49449;48.800;9.534;2023-01-28T09:20:12;99372.22;;;4.03;44.66
63321;BME280;49449;48.800;9.534;2023-01-28T09:22:40;99379.25;;;4.11;47.54
63321;BME280;49449;48.800;9.534;2023-01-28T09:25:08;99377.44;;;4.11;45.22
63321;BME280;49449;48.800;9.534;2023-01-28T09:27:36;99375.47;;;4.13;43.13
63321;BME280;49449;48.800;9.534;2023-01-28T09:30:06;99379.72;;;4.06;44.32
63321;BME280;49449;48.800;9.534;2023-01-28T09:32:35;99391.34;;;4.04;44.45
63321;BME280;49449;48.800;9.534;2023-01-28T09:35:04;99392.31;;;4.03;41.92
63321;BME280;49449;48.800;9.534;2023-01-28T09:37:32;99390.69;;;4.02;41.11
63321;BME280;49449;48.800;9.534;2023-01-28T09:40:00;99386.94;;;3.96;39.92
63321;BME280;49449;48.800;9.534;2023-01-28T09:42:45;99386.44;;;3.84;40.44
63321;BME280;49449;48.800;9.534;2023-01-28T09:45:17;99393.97;;;3.87;39.70
63321;BME280;49449;48.800;9.534;2023-01-28T09:47:49;99401.13;;;3.85;42.13
63321;BME280;49449;48.800;9.534;2023-01-28T09:50:22;99403.94;;;3.84;41.11
63321;BME280;49449;48.800;9.534;2023-01-28T09:52:53;99405.88;;;3.81;42.61
63321;BME280;49449;48.800;9.534;2023-01-28T09:55:29;99399.81;;;3.81;43.73
63321;BME280;49449;48.800;9.534;2023-01-28T09:57:58;99404.91;;;3.82;46.51
63321;BME280;49449;48.800;9.534;2023-01-28T10:00:31;99410.44;;;3.79;43.14
63321;BME280;49449;48.800;9.534;2023-01-28T10:03:21;99413.06;;;3.71;43.45
63321;BME280;49449;48.800;9.534;2023-01-28T10:05:58;99399.97;;;3.63;42.25
63321;BME280;49449;48.800;9.534;2023-01-28T10:08:41;99407.66;;;3.73;44.60
63321;BME280;49449;48.800;9.534;2023-01-28T10:11:19;99405.72;;;3.75;43.27
63321;BME280;49449;48.800;9.534;2023-01-28T10:13:58;99404.22;;;3.72;42.75
63321;BME280;49449;48.800;9.534;2023-01-28T10:16:34;99399.97;;;3.63;39.39
63321;BME280;49449;48.800;9.534;2023-01-28T10:19:06;99401.44;;;3.66;40.51
63321;BME280;49449;48.800;9.534;2023-01-28T10:21:40;99397.84;;;3.67;41.65
63321;BME280;49449;48.800;9.534;2023-01-28T10:24:15;99400.94;;;3.62;40.48
63321;BME280;49449;48.800;9.534;2023-01-28T10:26:44;99390.34;;;3.63;40.62
63321;BME280;49449;48.800;9.534;2023-01-28T10:29:16;99391.31;;;3.62;39.88
63321;BME280;49449;48.800;9.534;2023-01-28T10:31:51;99387.47;;;3.32;38.38
63321;BME280;49449;48.800;9.534;2023-01-28T10:34:20;99395.50;;;3.39;39.38
63321;BME280;49449;48.800;9.534;2023-01-28T10:36:49;99386.59;;;3.23;40.12
63321;BME280;49449;48.800;9.534;2023-01-28T10:39:20;99398.09;;;3.31;40.99
63321;BME280;49449;48.800;9.534;2023-01-28T10:41:50;99389.78;;;3.35;40.65
63321;BME280;49449;48.800;9.534;2023-01-28T10:44:30;99390.09;;;3.32;40.35
63321;BME280;49449;48.800;9.534;2023-01-28T10:47:02;99390.94;;;3.41;41.36
63321;BME280;49449;48.800;9.534;2023-01-28T10:49:33;99384.91;;;3.40;40.96
63321;BME280;49449;48.800;9.534;2023-01-28T10:52:10;99379.22;;;3.45;41.82
63321;BME280;49449;48.800;9.534;2023-01-28T10:54:38;99382.63;;;3.46;42.24
63321;BME280;49449;48.800;9.534;2023-01-28T10:57:09;99391.28;;;3.46;45.04
63321;BME280;49449;48.800;9.534;2023-01-28T10:59:39;99390.31;;;3.47;44.97
63321;BME280;49449;48.800;9.534;2023-01-28T11:02:25;99393.41;;;3.51;42.23
63321;BME280;49449;48.800;9.534;2023-01-28T11:05:05;99381.63;;;3.38;43.96
63321;BME280;49449;48.800;9.534;2023-01-28T11:07:33;99383.97;;;3.66;52.84
63321;BME280;49449;48.800;9.534;2023-01-28T11:10:01;99394.94;;;4.03;47.77
63321;BME280;49449;48.800;9.534;2023-01-28T11:12:29;99389.69;;;4.27;45.63
63321;BME280;49449;48.800;9.534;2023-01-28T11:14:59;99398.19;;;4.37;42.96
63321;BME280;49449;48.800;9.534;2023-01-28T11:17:31;99393.78;;;4.30;45.31
63321;BME280;49449;48.800;9.534;2023-01-28T11:20:09;99393.78;;;4.22;43.69
63321;BME280;49449;48.800;9.534;2023-01-28T11:22:39;99399.69;;;4.15;41.30
63321;BME280;49449;48.800;9.534;2023-01-28T11:25:15;99394.28;;;4.00;41.45
63321;BME280;49449;48.800;9.534;2023-01-28T11:27:46;99397.69;;;4.01;41.58
63321;BME280;49449;48.800;9.534;2023-01-28T11:30:21;99396.72;;;3.94;40.92
63321;BME280;49449;48.800;9.534;2023-01-28T11:33:02;99398.53;;;3.93;41.04
63321;BME280;49449;48.800;9.534;2023-01-28T11:35:31;99395.59;;;3.96;40.72
63321;BME280;49449;48.800;9.534;2023-01-28T11:37:59;99399.34;;;3.86;41.10
63321;BME280;49449;48.800;9.534;2023-01-28T11:40:27;99399.50;;;3.84;40.36
63321;BME280;49449;48.800;9.534;2023-01-28T11:42:55;99395.25;;;3.75;40.23
63321;BME280;49449;48.800;9.534;2023-01-28T11:45:32;99400.66;;;3.73;40.93
63321;BME280;49449;48.800;9.534;2023-01-28T11:48:18;99403.41;;;3.72;40.33
63321;BME280;49449;48.800;9.534;2023-01-28T11:50:55;99398.69;;;3.75;40.36
63321;BME280;49449;48.800;9.534;2023-01-28T11:53:47;99390.66;;;3.69;40.67
63321;BME280;49449;48.800;9.534;2023-01-28T11:56:30;99398.34;;;3.70;40.17
63321;BME280;49449;48.800;9.534;2023-01-28T11:59:18;99399.66;;;3.74;40.51
63321;BME280;49449;48.800;9.534;2023-01-28T12:01:54;99388.88;;;3.77;40.60
63321;BME280;49449;48.800;9.534;2023-01-28T12:04:39;99385.94;;;3.72;40.62
63321;BME280;49449;48.800;9.534;2023-01-28T12:10:10;99394.25;;;3.76;41.00
63321;BME280;49449;48.800;9.534;2023-01-28T12:12:54;99383.16;;;3.74;40.56
63321;BME280;49449;48.800;9.534;2023-01-28T12:15:57;99388.38;;;3.74;40.29
63321;BME280;49449;48.800;9.534;2023-01-28T12:21:30;99386.25;;;3.69;39.33
63321;BME280;49449;48.800;9.534;2023-01-28T12:24:13;99396.22;;;3.66;41.10
63321;BME280;49449;48.800;9.534;2023-01-28T12:26:50;99388.38;;;3.74;39.97
63321;BME280;49449;48.800;9.534;2023-01-28T12:29:26;99385.63;;;3.75;39.57
63321;BME280;49449;48.800;9.534;2023-01-28T12:32:07;99384.81;;;3.75;40.43
63321;BME280;49449;48.800;9.534;2023-01-28T12:34:57;99383.81;;;3.76;40.66
63321;BME280;49449;48.800;9.534;2023-01-28T12:37:41;99384.63;;;3.76;40.27
63321;BME280;49449;48.800;9.534;2023-01-28T12:43:12;99387.91;;;3.78;40.83
63321;BME280;49449;48.800;9.534;2023-01-28T12:45:44;99384.97;;;3.73;41.10
63321;BME280;49449;48.800;9.534;2023-01-28T12:48:18;99385.94;;;3.72;40.78
63321;BME280;49449;48.800;9.534;2023-01-28T12:50:50;99379.91;;;3.72;40.17
63321;BME280;49449;48.800;9.534;2023-01-28T12:53:28;99379.09;;;3.71;40.53
63321;BME280;49449;48.800;9.534;2023-01-28T12:56:02;99386.44;;;3.76;39.75
63321;BME280;49449;48.800;9.534;2023-01-28T12:58:38;99384.47;;;3.78;40.93
63321;BME280;49449;48.800;9.534;2023-01-28T13:01:10;99386.59;;;3.82;41.11
63321;BME280;49449;48.800;9.534;2023-01-28T13:03:44;99383.00;;;3.84;40.47
63321;BME280;49449;48.800;9.534;2023-01-28T13:06:22;99385.44;;;3.85;40.05
63321;BME280;49449;48.800;9.534;2023-01-28T13:08:55;99380.72;;;3.80;40.62
63321;BME280;49449;48.800;9.534;2023-01-28T13:11:31;99380.41;;;3.84;40.71
63321;BME280;49449;48.800;9.534;2023-01-28T13:14:00;99380.69;;;3.89;40.67
63321;BME280;49449;48.800;9.534;2023-01-28T13:16:28;99382.19;;;3.91;40.01
63321;BME280;49449;48.800;9.534;2023-01-28T13:19:05;99378.78;;;3.91;40.12
63321;BME280;49449;48.800;9.534;2023-01-28T13:21:35;99387.59;;;3.90;40.70
63321;BME280;49449;48.800;9.534;2023-01-28T13:24:33;99376.63;;;3.86;40.25
63321;BME280;49449;48.800;9.534;2023-01-28T13:27:11;99391.50;;;3.86;43.15
63321;BME280;49449;48.800;9.534;2023-01-28T13:29:39;99387.09;;;3.86;41.60
63321;BME280;49449;48.800;9.534;2023-01-28T13:32:27;99391.50;;;3.86;42.51
63321;BME280;49449;48.800;9.534;2023-01-28T13:34:57;99381.06;;;3.86;41.51
63321;BME280;49449;48.800;9.534;2023-01-28T13:37:29;99382.69;;;3.78;41.66
63321;BME280;49449;48.800;9.534;2023-01-28T13:40:04;99381.53;;;3.81;42.63
63321;BME280;49449;48.800;9.534;2023-01-28T13:42:35;99386.28;;;3.86;41.88
63321;BME280;49449;48.800;9.534;2023-01-28T13:45:27;99387.41;;;3.83;42.47